Time;durP1;ratioP1;P1;durP2;ratioP2;P2;SDS_P1;SDS_P2;PMS_P1;PMS_P2;Temp;Humidity;BMP_temperature;BMP_pressure;BME280_temperature;BME280_humidity;BME280_pressure;Samples;Min_cycle;Max_cycle;Signal;HPM_P1;HPM_P2
2020/12/09 00:00:26;;;;;;;;;;;19.30;83.30;;;;;;1891916;75;20208;-78
2020/12/09 00:02:57;;;;;;;;;;;19.30;83.70;;;;;;1877763;75;20133;-77
2020/12/09 00:05:27;;;;;;;;;;;19.30;83.60;;;;;;1894657;74;20215;-76
2020/12/09 00:07:57;;;;;;;;;;;19.40;83.30;;;;;;1884318;74;20222;-77
2020/12/09 00:10:27;;;;;;;;;;;19.40;82.90;;;;;;1895648;74;20212;-78
2020/12/09 00:12:57;;;;;;;;;;;19.50;83.70;;;;;;1885366;75;20249;-77
2020/12/09 00:15:27;;;;;;;;;;;19.50;82.10;;;;;;1889741;74;20212;-67
2020/12/09 00:17:57;;;;;;;;;;;19.60;81.90;;;;;;1893155;74;20220;-67
2020/12/09 00:20:26;;;;;;;;;;;19.60;81.40;;;;;;1886085;74;20569;-66
2020/12/09 00:22:57;;;;;;;;;;;19.70;81.20;;;;;;1868876;75;20179;-67
2020/12/09 00:25:27;;;;;;;;;;;19.70;81.30;;;;;;1892783;74;20193;-66
2020/12/09 00:27:56;;;;;;;;;;;19.70;81.20;;;;;;1882671;74;20201;-67
2020/12/09 00:30:26;;;;;;;;;;;19.80;81.00;;;;;;1881608;75;20609;-66
2020/12/09 00:32:56;;;;;;;;;;;19.80;80.70;;;;;;1877421;75;20256;-67
2020/12/09 00:35:26;;;;;;;;;;;19.80;80.60;;;;;;1875726;75;20281;-68
2020/12/09 00:37:56;;;;;;;;;;;19.90;80.40;;;;;;1886507;74;20202;-67
2020/12/09 00:40:26;;;;;;;;;;;19.90;79.90;;;;;;1894498;74;20218;-67
2020/12/09 00:42:55;;;;;;;;;;;20.00;79.70;;;;;;1893925;74;20198;-67
2020/12/09 00:45:25;;;;;;;;;;;20.00;79.70;;;;;;1882039;74;20195;-66
2020/12/09 00:47:55;;;;;;;;;;;20.10;79.60;;;;;;1842128;76;20123;-67
2020/12/09 00:50:28;;;;;;;;;;;20.20;79.00;;;;;;1863055;76;20423;-67
2020/12/09 00:52:57;;;;;;;;;;;20.20;78.10;;;;;;1851041;76;20472;-67
2020/12/09 00:55:27;;;;;;;;;;;20.30;78.10;;;;;;1875330;76;20530;-67
2020/12/09 00:57:57;;;;;;;;;;;20.40;77.80;;;;;;1881231;75;20133;-68
2020/12/09 01:00:27;;;;;;;;;;;20.40;77.90;;;;;;1882342;75;20676;-69
2020/12/09 01:02:57;;;;;;;;;;;20.50;77.50;;;;;;1867964;75;20288;-69
2020/12/09 01:05:27;;;;;;;;;;;20.50;77.20;;;;;;1874400;76;20200;-69
2020/12/09 01:07:58;;;;;;;;;;;20.60;76.60;;;;;;1881543;75;20200;-68
2020/12/09 01:10:28;;;;;;;;;;;20.70;76.60;;;;;;1873278;75;20251;-67
2020/12/09 01:12:57;;;;;;;;;;;20.70;76.20;;;;;;1878246;75;20207;-67
2020/12/09 01:15:27;;;;;;;;;;;20.80;76.00;;;;;;1853868;76;20123;-69
2020/12/09 01:17:57;;;;;;;;;;;20.80;75.70;;;;;;1881584;75;20124;-66
2020/12/09 01:20:27;;;;;;;;;;;20.90;75.40;;;;;;1890711;74;20502;-69
2020/12/09 01:22:57;;;;;;;;;;;21.00;75.20;;;;;;1886176;74;20195;-65
2020/12/09 01:25:28;;;;;;;;;;;21.00;75.10;;;;;;1876142;75;20272;-65
2020/12/09 01:27:58;;;;;;;;;;;21.00;74.80;;;;;;1884996;74;20259;-66
2020/12/09 01:30:29;;;;;;;;;;;21.10;74.40;;;;;;1890090;74;20196;-66
2020/12/09 01:32:59;;;;;;;;;;;21.20;74.40;;;;;;1896551;74;20252;-68
2020/12/09 01:35:29;;;;;;;;;;;21.20;74.10;;;;;;1877294;74;20251;-68
2020/12/09 01:37:59;;;;;;;;;;;21.30;74.20;;;;;;1886574;75;20158;-68
2020/12/09 01:40:29;;;;;;;;;;;21.30;73.80;;;;;;1887452;75;20459;-68
2020/12/09 01:42:59;;;;;;;;;;;21.40;73.80;;;;;;1890042;75;20201;-68
2020/12/09 01:45:29;;;;;;;;;;;21.50;73.80;;;;;;1879366;74;20231;-68
2020/12/09 01:47:59;;;;;;;;;;;21.60;73.60;;;;;;1886788;74;20121;-68
2020/12/09 01:50:29;;;;;;;;;;;21.60;73.10;;;;;;1885371;75;20218;-68
2020/12/09 01:53:00;;;;;;;;;;;21.70;73.40;;;;;;1888643;74;20204;-68
2020/12/09 01:55:30;;;;;;;;;;;21.70;72.80;;;;;;1838726;76;20182;-69
2020/12/09 01:58:03;;;;;;;;;;;21.70;72.90;;;;;;1845220;76;20184;-67
2020/12/09 02:00:35;;;;;;;;;;;21.80;72.60;;;;;;1844769;76;20253;-66
2020/12/09 02:03:06;;;;;;;;;;;21.80;72.50;;;;;;1835121;77;20575;-67
2020/12/09 02:05:36;;;;;;;;;;;21.80;72.30;;;;;;1854400;76;20446;-66
2020/12/09 02:08:09;;;;;;;;;;;21.90;72.50;;;;;;1905224;74;20231;-68
2020/12/09 02:10:40;;;;;;;;;;;22.00;71.90;;;;;;1898528;74;20243;-67
2020/12/09 02:13:10;;;;;;;;;;;22.00;71.50;;;;;;1888739;74;20224;-67
2020/12/09 02:15:41;;;;;;;;;;;22.00;71.60;;;;;;1897136;74;20131;-65
2020/12/09 02:18:16;;;;;;;;;;;22.00;70.80;;;;;;1894019;75;20380;-70
2020/12/09 02:21:09;;;;;;;;;;;22.10;69.80;;;;;;1891254;75;20171;-68
2020/12/09 02:23:38;;;;;;;;;;;22.10;70.10;;;;;;1888750;74;20249;-65
2020/12/09 02:26:08;;;;;;;;;;;22.10;69.10;;;;;;1886868;74;20197;-66
2020/12/09 02:28:37;;;;;;;;;;;22.20;70.00;;;;;;1887406;75;20275;-67
2020/12/09 02:31:16;;;;;;;;;;;22.20;69.80;;;;;;1895819;74;20125;-68
2020/12/09 02:33:56;;;;;;;;;;;22.20;69.40;;;;;;1857573;74;20842;-67
2020/12/09 02:36:25;;;;;;;;;;;22.30;68.90;;;;;;1889589;74;20209;-68
2020/12/09 02:38:55;;;;;;;;;;;22.40;69.10;;;;;;1889164;74;20219;-68
2020/12/09 02:41:29;;;;;;;;;;;22.40;69.30;;;;;;1888512;74;20143;-68
2020/12/09 02:43:58;;;;;;;;;;;22.40;69.10;;;;;;1896806;74;20233;-67
2020/12/09 02:46:28;;;;;;;;;;;22.50;68.80;;;;;;1893425;75;20212;-67
2020/12/09 02:48:57;;;;;;;;;;;22.50;66.60;;;;;;1881018;74;20166;-67
2020/12/09 02:51:27;;;;;;;;;;;22.50;68.00;;;;;;1890963;75;20224;-67
2020/12/09 02:53:57;;;;;;;;;;;22.60;66.90;;;;;;1887116;74;20267;-68
2020/12/09 02:56:27;;;;;;;;;;;22.60;67.70;;;;;;1889772;74;20208;-68
2020/12/09 02:58:57;;;;;;;;;;;22.70;67.80;;;;;;1926042;73;20187;-69
2020/12/09 03:01:26;;;;;;;;;;;22.70;66.10;;;;;;1916346;74;20184;-69
2020/12/09 03:03:56;;;;;;;;;;;22.70;66.20;;;;;;1920714;73;20212;-68
2020/12/09 03:06:27;;;;;;;;;;;22.80;66.30;;;;;;1925578;73;20177;-69
2020/12/09 03:08:57;;;;;;;;;;;22.90;67.20;;;;;;1926790;74;20188;-69
2020/12/09 03:11:28;;;;;;;;;;;22.90;66.10;;;;;;1925220;73;20196;-66
2020/12/09 03:14:05;;;;;;;;;;;23.00;66.50;;;;;;1902355;74;20394;-70
2020/12/09 03:16:32;;;;;;;;;;;23.10;66.00;;;;;;1926283;73;20454;-67
2020/12/09 03:19:02;;;;;;;;;;;23.20;64.60;;;;;;1930338;73;20163;-67
2020/12/09 03:21:35;;;;;;;;;;;23.20;65.50;;;;;;1900213;74;20201;-68
2020/12/09 03:24:06;;;;;;;;;;;23.30;66.30;;;;;;1888836;75;20188;-68
2020/12/09 03:26:36;;;;;;;;;;;23.40;65.30;;;;;;1888705;74;20237;-68
2020/12/09 03:29:06;;;;;;;;;;;23.40;63.60;;;;;;1892220;75;20226;-68
2020/12/09 03:31:43;;;;;;;;;;;23.40;65.00;;;;;;1892485;74;20222;-68
2020/12/09 03:37:08;;;;;;;;;;;23.60;64.60;;;;;;1859214;76;20200;-67
2020/12/09 03:39:38;;;;;;;;;;;23.70;64.50;;;;;;1852064;77;20418;-67
2020/12/09 03:42:08;;;;;;;;;;;23.70;64.70;;;;;;1850800;77;20186;-67
2020/12/09 03:44:48;;;;;;;;;;;23.80;64.40;;;;;;1850185;77;20241;-66
2020/12/09 03:47:18;;;;;;;;;;;23.90;63.90;;;;;;1841655;77;20248;-67
2020/12/09 03:49:50;;;;;;;;;;;24.00;62.50;;;;;;1820976;77;20160;-67
2020/12/09 03:52:20;;;;;;;;;;;24.10;62.50;;;;;;1796784;78;20274;-67
2020/12/09 03:54:50;;;;;;;;;;;24.20;62.80;;;;;;1794552;79;20243;-67
2020/12/09 04:00:10;;;;;;;;;;;24.30;61.10;;;;;;1789505;78;20275;-67
2020/12/09 04:02:40;;;;;;;;;;;24.40;61.60;;;;;;1775779;80;20261;-68
2020/12/09 04:05:10;;;;;;;;;;;24.60;61.50;;;;;;1778679;79;20284;-68
2020/12/09 04:07:40;;;;;;;;;;;24.70;59.70;;;;;;1812320;78;20398;-68
2020/12/09 04:10:10;;;;;;;;;;;24.80;60.80;;;;;;1850344;77;20170;-68
2020/12/09 04:12:40;;;;;;;;;;;24.80;62.10;;;;;;1856427;76;20236;-68
2020/12/09 04:15:10;;;;;;;;;;;25.00;59.00;;;;;;1859738;77;20213;-68
2020/12/09 04:17:41;;;;;;;;;;;25.00;58.30;;;;;;1859046;76;20182;-68
2020/12/09 04:20:12;;;;;;;;;;;25.10;57.90;;;;;;1854110;76;20213;-68
2020/12/09 04:22:43;;;;;;;;;;;25.20;59.20;;;;;;1852548;76;20135;-68
2020/12/09 04:25:12;;;;;;;;;;;25.30;59.10;;;;;;1849545;76;20237;-68
2020/12/09 04:27:42;;;;;;;;;;;25.30;57.90;;;;;;1850755;76;20206;-68
2020/12/09 04:30:12;;;;;;;;;;;25.40;58.40;;;;;;1854007;76;20200;-66
2020/12/09 04:32:42;;;;;;;;;;;25.50;60.30;;;;;;1854645;76;20504;-66
2020/12/09 04:35:13;;;;;;;;;;;25.50;59.10;;;;;;1780967;79;20128;-65
2020/12/09 04:37:44;;;;;;;;;;;25.70;60.60;;;;;;1802523;78;20146;-64
2020/12/09 04:40:18;;;;;;;;;;;25.70;56.80;;;;;;1793372;79;20575;-65
2020/12/09 04:42:49;;;;;;;;;;;25.80;56.50;;;;;;1828212;77;20271;-65
2020/12/09 04:45:29;;;;;;;;;;;25.90;58.20;;;;;;1822718;77;20168;-66
2020/12/09 04:47:59;;;;;;;;;;;26.00;56.60;;;;;;1817867;77;20609;-66
2020/12/09 04:50:31;;;;;;;;;;;26.10;57.70;;;;;;1818168;78;20240;-66
2020/12/09 04:53:02;;;;;;;;;;;26.10;57.70;;;;;;1813611;77;20199;-65
2020/12/09 04:55:33;;;;;;;;;;;26.20;56.70;;;;;;1820737;77;21042;-66
2020/12/09 04:58:05;;;;;;;;;;;26.30;57.50;;;;;;1820143;77;20238;-66
2020/12/09 05:00:35;;;;;;;;;;;26.40;56.80;;;;;;1814322;78;20232;-67
2020/12/09 05:03:07;;;;;;;;;;;26.50;56.90;;;;;;1819150;77;20226;-67
2020/12/09 05:05:47;;;;;;;;;;;26.60;54.30;;;;;;1817209;77;20463;-67
2020/12/09 05:08:16;;;;;;;;;;;26.60;56.00;;;;;;1833432;77;20208;-66
2020/12/09 05:10:48;;;;;;;;;;;26.60;57.00;;;;;;1828078;77;20207;-66
2020/12/09 05:13:21;;;;;;;;;;;26.70;56.70;;;;;;1821687;77;20246;-66
2020/12/09 05:15:51;;;;;;;;;;;26.70;56.70;;;;;;1830211;77;20180;-66
2020/12/09 05:18:23;;;;;;;;;;;26.70;54.70;;;;;;1808601;78;20188;-66
2020/12/09 05:20:53;;;;;;;;;;;26.80;54.90;;;;;;1762163;80;20223;-66
2020/12/09 05:23:24;;;;;;;;;;;26.80;53.90;;;;;;1847077;77;20186;-66
2020/12/09 05:25:55;;;;;;;;;;;27.00;56.50;;;;;;1825361;77;20148;-67
2020/12/09 05:28:28;;;;;;;;;;;27.10;54.60;;;;;;1813977;79;20179;-67
2020/12/09 05:30:56;;;;;;;;;;;27.10;54.20;;;;;;1814419;78;20184;-66
2020/12/09 05:33:27;;;;;;;;;;;27.20;54.40;;;;;;1824928;77;20521;-66
2020/12/09 05:35:58;;;;;;;;;;;27.10;54.40;;;;;;1843158;77;20172;-65
2020/12/09 05:38:28;;;;;;;;;;;27.10;54.60;;;;;;1836634;77;20172;-66
2020/12/09 05:40:59;;;;;;;;;;;27.10;55.40;;;;;;1818695;79;20876;-66
2020/12/09 05:43:50;;;;;;;;;;;27.10;54.20;;;;;;1819531;78;20259;-66
2020/12/09 05:46:20;;;;;;;;;;;27.20;52.10;;;;;;1786153;79;20137;-66
2020/12/09 05:48:53;;;;;;;;;;;27.20;52.60;;;;;;1786129;79;20183;-66
2020/12/09 05:51:23;;;;;;;;;;;27.20;54.60;;;;;;1785940;80;20190;-66
2020/12/09 05:53:52;;;;;;;;;;;27.30;52.60;;;;;;1786392;79;20592;-66
2020/12/09 05:56:25;;;;;;;;;;;27.30;53.90;;;;;;1792487;79;20230;-67
2020/12/09 05:58:54;;;;;;;;;;;27.30;53.00;;;;;;1789084;78;20215;-67
2020/12/09 06:01:26;;;;;;;;;;;27.30;52.80;;;;;;1764812;80;20242;-65
2020/12/09 06:04:01;;;;;;;;;;;27.40;52.20;;;;;;1791541;80;20127;-65
2020/12/09 06:06:37;;;;;;;;;;;27.40;52.50;;;;;;1787540;79;20213;-67
2020/12/09 06:09:10;;;;;;;;;;;27.40;54.10;;;;;;1798300;78;20185;-68
2020/12/09 06:11:40;;;;;;;;;;;27.50;54.60;;;;;;1789744;78;20265;-66
2020/12/09 06:14:12;;;;;;;;;;;27.50;52.90;;;;;;1787900;78;20163;-69
2020/12/09 06:16:43;;;;;;;;;;;27.60;54.40;;;;;;1780657;80;20511;-67
2020/12/09 06:19:13;;;;;;;;;;;27.60;53.30;;;;;;1787432;80;20206;-67
2020/12/09 06:21:42;;;;;;;;;;;27.60;52.90;;;;;;1788342;78;20157;-67
2020/12/09 06:24:13;;;;;;;;;;;27.60;50.90;;;;;;1787840;80;20160;-68
2020/12/09 06:26:43;;;;;;;;;;;27.70;50.20;;;;;;1787833;80;20235;-69
2020/12/09 06:29:13;;;;;;;;;;;27.70;50.90;;;;;;1787212;78;20210;-70
2020/12/09 06:31:43;;;;;;;;;;;27.70;50.90;;;;;;1789460;78;20239;-69
2020/12/09 06:34:14;;;;;;;;;;;27.70;54.50;;;;;;1793918;78;20187;-69
2020/12/09 06:36:46;;;;;;;;;;;27.70;53.90;;;;;;1786714;78;20238;-68
2020/12/09 06:39:18;;;;;;;;;;;27.70;52.20;;;;;;1781867;78;20270;-68
2020/12/09 06:42:02;;;;;;;;;;;27.70;50.20;;;;;;1747355;80;20229;-73
2020/12/09 06:44:33;;;;;;;;;;;27.70;52.40;;;;;;1745160;80;20238;-67
2020/12/09 06:47:24;;;;;;;;;;;27.70;52.60;;;;;;1773440;79;20523;-69
2020/12/09 06:50:01;;;;;;;;;;;27.70;53.40;;;;;;1809080;78;20563;-71
2020/12/09 06:52:29;;;;;;;;;;;27.70;50.40;;;;;;1804989;78;20205;-69
2020/12/09 06:55:00;;;;;;;;;;;27.70;50.80;;;;;;1802894;77;20489;-69
2020/12/09 06:57:35;;;;;;;;;;;27.70;50.80;;;;;;1833518;77;20206;-68
2020/12/09 07:00:18;;;;;;;;;;;27.80;50.70;;;;;;1765848;77;20197;-67
2020/12/09 07:02:55;;;;;;;;;;;27.80;50.40;;;;;;1825345;77;20276;-67
2020/12/09 07:05:19;;;;;;;;;;;27.80;51.70;;;;;;1811960;77;20160;-67
2020/12/09 07:07:54;;;;;;;;;;;27.80;52.10;;;;;;1831749;77;20162;-67
2020/12/09 07:10:27;;;;;;;;;;;27.80;51.70;;;;;;1827887;77;20169;-65
2020/12/09 07:13:07;;;;;;;;;;;27.80;52.50;;;;;;1824021;77;20204;-66
2020/12/09 07:15:30;;;;;;;;;;;27.90;51.90;;;;;;1822230;77;20527;-67
2020/12/09 07:18:03;;;;;;;;;;;27.90;51.80;;;;;;1825173;77;20261;-67
2020/12/09 07:20:39;;;;;;;;;;;27.90;51.40;;;;;;1823614;77;20144;-66
2020/12/09 07:23:07;;;;;;;;;;;27.90;51.20;;;;;;1793194;77;20488;-67
2020/12/09 07:25:40;;;;;;;;;;;27.90;51.80;;;;;;1821853;77;20205;-69
2020/12/09 07:28:10;;;;;;;;;;;27.90;51.00;;;;;;1818850;77;20166;-68
2020/12/09 07:30:39;;;;;;;;;;;27.90;51.60;;;;;;1812303;77;20170;-68
2020/12/09 07:33:09;;;;;;;;;;;27.80;52.10;;;;;;1824273;77;20186;-70
2020/12/09 07:35:39;;;;;;;;;;;27.80;51.60;;;;;;1818444;77;20216;-69
2020/12/09 07:38:10;;;;;;;;;;;27.80;51.40;;;;;;1820712;79;20302;-69
2020/12/09 07:40:40;;;;;;;;;;;27.80;51.90;;;;;;1816905;77;20229;-70
2020/12/09 07:43:11;;;;;;;;;;;27.80;51.20;;;;;;1798238;79;20252;-70
2020/12/09 07:45:42;;;;;;;;;;;27.80;51.00;;;;;;1818014;77;20209;-69
2020/12/09 07:48:15;;;;;;;;;;;27.80;50.40;;;;;;1847134;77;20217;-67
2020/12/09 07:50:48;;;;;;;;;;;27.80;50.80;;;;;;1823744;77;20819;-69
2020/12/09 07:53:19;;;;;;;;;;;27.70;51.90;;;;;;1822383;77;20251;-69
2020/12/09 07:55:49;;;;;;;;;;;27.70;52.80;;;;;;1820745;77;20582;-69
2020/12/09 07:58:19;;;;;;;;;;;27.70;52.00;;;;;;1822390;77;20158;-70
2020/12/09 08:00:50;;;;;;;;;;;27.60;51.20;;;;;;1827023;77;20154;-69
2020/12/09 08:03:21;;;;;;;;;;;27.70;51.00;;;;;;1824265;77;20376;-69
2020/12/09 08:05:53;;;;;;;;;;;27.70;51.30;;;;;;1796806;78;20240;-70
2020/12/09 08:08:24;;;;;;;;;;;27.70;51.20;;;;;;1824723;77;20212;-69
2020/12/09 08:10:54;;;;;;;;;;;27.70;51.60;;;;;;1822616;77;20214;-68
2020/12/09 08:13:30;;;;;;;;;;;27.70;52.00;;;;;;1827213;77;20535;-69
2020/12/09 08:16:02;;;;;;;;;;;27.70;51.80;;;;;;1823762;77;20207;-67
2020/12/09 08:18:32;;;;;;;;;;;27.70;53.90;;;;;;1822923;77;20199;-69
2020/12/09 08:21:02;;;;;;;;;;;27.60;53.10;;;;;;1828532;77;20374;-68
2020/12/09 08:23:33;;;;;;;;;;;27.60;52.20;;;;;;1836532;77;20225;-67
2020/12/09 08:26:06;;;;;;;;;;;27.50;51.80;;;;;;1828781;77;20278;-67
2020/12/09 08:28:40;;;;;;;;;;;27.50;51.60;;;;;;1819859;77;20160;-68
2020/12/09 08:31:11;;;;;;;;;;;27.50;50.90;;;;;;1817526;77;20227;-68
2020/12/09 08:33:42;;;;;;;;;;;27.40;51.20;;;;;;1820034;77;20218;-66
2020/12/09 08:36:18;;;;;;;;;;;27.40;52.30;;;;;;1827940;77;20212;-68
2020/12/09 08:38:58;;;;;;;;;;;27.30;52.50;;;;;;1798719;78;20199;-67
2020/12/09 08:41:29;;;;;;;;;;;27.30;52.00;;;;;;1821730;77;20232;-68
2020/12/09 08:44:05;;;;;;;;;;;27.30;51.70;;;;;;1816171;77;20172;-66
2020/12/09 08:46:40;;;;;;;;;;;27.30;51.60;;;;;;1820343;77;20164;-68
2020/12/09 08:49:11;;;;;;;;;;;27.30;51.50;;;;;;1798415;78;20263;-68
2020/12/09 08:51:42;;;;;;;;;;;27.30;51.20;;;;;;1818117;77;20189;-68
2020/12/09 08:54:15;;;;;;;;;;;27.30;51.50;;;;;;1820374;77;20211;-68
2020/12/09 08:56:53;;;;;;;;;;;27.30;51.50;;;;;;1812890;77;20160;-65
2020/12/09 08:59:23;;;;;;;;;;;27.30;52.40;;;;;;1825316;77;20265;-65
2020/12/09 09:01:53;;;;;;;;;;;27.30;50.70;;;;;;1828505;77;20166;-65
2020/12/09 09:04:30;;;;;;;;;;;27.20;51.70;;;;;;1818504;77;20274;-66
2020/12/09 09:06:54;;;;;;;;;;;27.20;51.90;;;;;;1818412;77;20209;-66
2020/12/09 09:09:24;;;;;;;;;;;27.20;51.20;;;;;;1816397;77;20232;-66
2020/12/09 09:11:54;;;;;;;;;;;27.20;51.40;;;;;;1829946;77;20438;-68
2020/12/09 09:14:25;;;;;;;;;;;27.20;50.80;;;;;;1824808;77;20251;-66
2020/12/09 09:16:55;;;;;;;;;;;27.10;51.20;;;;;;1804056;79;20196;-67
2020/12/09 09:19:25;;;;;;;;;;;27.10;51.70;;;;;;1795271;79;20313;-66
2020/12/09 09:21:55;;;;;;;;;;;27.10;51.40;;;;;;1807330;79;20770;-66
2020/12/09 09:24:25;;;;;;;;;;;27.10;52.00;;;;;;1801656;79;20583;-66
2020/12/09 09:26:54;;;;;;;;;;;27.10;52.20;;;;;;1800092;79;20196;-65
2020/12/09 09:29:25;;;;;;;;;;;27.00;52.40;;;;;;1804544;79;20245;-65
2020/12/09 09:31:55;;;;;;;;;;;27.10;52.50;;;;;;1821240;77;20632;-65
2020/12/09 09:34:25;;;;;;;;;;;27.00;52.60;;;;;;1823213;77;20264;-66
2020/12/09 09:36:54;;;;;;;;;;;27.00;52.10;;;;;;1827130;77;20252;-65
2020/12/09 09:39:24;;;;;;;;;;;27.00;52.90;;;;;;1823858;77;20260;-65
2020/12/09 09:41:55;;;;;;;;;;;27.00;52.90;;;;;;1831883;77;20455;-67
2020/12/09 09:44:27;;;;;;;;;;;26.90;52.80;;;;;;1816872;79;20188;-68
2020/12/09 09:46:58;;;;;;;;;;;26.80;53.20;;;;;;1819836;79;20176;-68
2020/12/09 09:49:29;;;;;;;;;;;26.80;52.90;;;;;;1817867;77;20202;-69
2020/12/09 09:51:59;;;;;;;;;;;26.80;52.90;;;;;;1818296;79;20192;-69
2020/12/09 09:54:30;;;;;;;;;;;26.80;53.10;;;;;;1808672;78;20218;-68
2020/12/09 09:57:03;;;;;;;;;;;26.70;53.30;;;;;;1769059;80;20139;-67
2020/12/09 09:59:33;;;;;;;;;;;26.60;54.10;;;;;;1787107;78;20181;-68
2020/12/09 10:02:04;;;;;;;;;;;26.60;53.30;;;;;;1796768;78;20236;-68
2020/12/09 10:04:38;;;;;;;;;;;26.60;53.40;;;;;;1817919;77;20202;-68
2020/12/09 10:07:43;;;;;;;;;;;26.50;53.80;;;;;;1825190;77;20240;-68
2020/12/09 10:09:40;;;;;;;;;;;26.50;54.20;;;;;;1819068;77;20455;-69
2020/12/09 10:12:12;;;;;;;;;;;26.40;54.10;;;;;;1820854;77;20224;-67
2020/12/09 10:14:42;;;;;;;;;;;26.40;53.70;;;;;;1825899;77;20228;-68
2020/12/09 10:17:14;;;;;;;;;;;26.40;53.60;;;;;;1817285;77;20255;-69
2020/12/09 10:19:44;;;;;;;;;;;26.40;54.30;;;;;;1796710;78;20487;-69
2020/12/09 10:22:14;;;;;;;;;;;26.30;53.80;;;;;;1766562;80;20127;-69
2020/12/09 10:24:44;;;;;;;;;;;26.30;54.40;;;;;;1804326;78;20489;-70
2020/12/09 10:27:14;;;;;;;;;;;26.30;54.70;;;;;;1822236;77;20510;-67
2020/12/09 10:29:44;;;;;;;;;;;26.30;54.40;;;;;;1830360;77;20209;-68
2020/12/09 10:32:14;;;;;;;;;;;26.20;54.10;;;;;;1820149;77;20224;-66
2020/12/09 10:34:49;;;;;;;;;;;26.20;54.20;;;;;;1813967;77;20220;-67
2020/12/09 10:37:18;;;;;;;;;;;26.20;54.40;;;;;;1830201;77;20255;-66
2020/12/09 10:39:52;;;;;;;;;;;26.20;54.50;;;;;;1833490;77;20217;-66
2020/12/09 10:42:23;;;;;;;;;;;26.20;54.50;;;;;;1820329;77;20167;-67
2020/12/09 10:44:55;;;;;;;;;;;26.20;54.80;;;;;;1820196;77;20120;-67
2020/12/09 10:47:30;;;;;;;;;;;26.10;54.60;;;;;;1817869;77;20279;-70
2020/12/09 10:50:00;;;;;;;;;;;26.10;54.70;;;;;;1819597;78;20292;-67
2020/12/09 10:52:38;;;;;;;;;;;26.10;54.70;;;;;;1815136;78;20238;-65
2020/12/09 10:55:08;;;;;;;;;;;26.00;54.60;;;;;;1814070;78;20202;-68
2020/12/09 10:57:40;;;;;;;;;;;26.10;55.10;;;;;;1819639;77;20208;-69
2020/12/09 11:00:14;;;;;;;;;;;26.00;55.00;;;;;;1801385;78;20174;-66
2020/12/09 11:02:44;;;;;;;;;;;26.00;55.20;;;;;;1798602;78;20197;-66
2020/12/09 11:05:14;;;;;;;;;;;26.00;55.10;;;;;;1829630;78;20233;-64
2020/12/09 11:07:43;;;;;;;;;;;25.90;55.50;;;;;;1837643;77;20188;-67
2020/12/09 11:10:20;;;;;;;;;;;25.90;55.50;;;;;;1837411;78;20194;-66
2020/12/09 11:12:54;;;;;;;;;;;25.80;55.60;;;;;;1837429;76;20211;-70
2020/12/09 11:15:27;;;;;;;;;;;25.80;55.70;;;;;;1802869;78;20675;-77
2020/12/09 11:17:59;;;;;;;;;;;25.80;55.70;;;;;;1831373;77;20164;-79
2020/12/09 11:20:29;;;;;;;;;;;25.80;55.60;;;;;;1839330;77;20396;-77
2020/12/09 11:22:59;;;;;;;;;;;25.80;55.40;;;;;;1836457;77;20198;-80
2020/12/09 11:25:29;;;;;;;;;;;25.80;55.80;;;;;;1828919;77;20180;-79
2020/12/09 11:28:14;;;;;;;;;;;25.70;55.70;;;;;;1821474;77;20236;-78
2020/12/09 11:30:32;;;;;;;;;;;25.70;56.00;;;;;;1796694;75;20223;-78
2020/12/09 11:33:16;;;;;;;;;;;25.70;55.60;;;;;;1778969;80;20221;-78
2020/12/09 11:35:54;;;;;;;;;;;25.70;56.40;;;;;;1825962;77;20180;-79
2020/12/09 11:38:32;;;;;;;;;;;25.70;55.80;;;;;;1816749;78;20243;-79
2020/12/09 11:41:01;;;;;;;;;;;25.60;55.50;;;;;;1818396;79;20215;-78
2020/12/09 11:43:31;;;;;;;;;;;25.60;55.70;;;;;;1822604;77;20200;-77
2020/12/09 11:46:07;;;;;;;;;;;25.50;55.90;;;;;;1797224;79;20172;-80
2020/12/09 11:48:38;;;;;;;;;;;25.50;55.70;;;;;;1813812;78;20154;-78
2020/12/09 11:51:14;;;;;;;;;;;25.50;55.70;;;;;;1810143;78;20154;-78
2020/12/09 11:53:45;;;;;;;;;;;25.40;55.70;;;;;;1799117;80;20138;-78
2020/12/09 11:56:18;;;;;;;;;;;25.40;55.60;;;;;;1781366;80;20158;-78
2020/12/09 11:58:52;;;;;;;;;;;25.40;55.80;;;;;;1786574;80;20222;-80
2020/12/09 12:01:32;;;;;;;;;;;;;;;;;;;;;
2020/12/09 12:03:59;;;;;;;;;;;25.30;55.80;;;;;;1790215;80;20181;-79
2020/12/09 12:06:30;;;;;;;;;;;25.30;55.80;;;;;;1789068;80;20218;-78
2020/12/09 12:09:05;;;;;;;;;;;25.30;56.10;;;;;;1786965;79;20182;-78
2020/12/09 12:11:33;;;;;;;;;;;25.30;56.00;;;;;;1786944;80;20194;-77
2020/12/09 12:14:03;;;;;;;;;;;25.20;56.10;;;;;;1787488;80;20265;-77
2020/12/09 12:16:35;;;;;;;;;;;25.20;56.10;;;;;;1787499;80;20256;-77
2020/12/09 12:19:16;;;;;;;;;;;25.20;56.10;;;;;;1786233;80;20206;-76
2020/12/09 12:21:51;;;;;;;;;;;25.10;56.00;;;;;;1855701;75;20161;-76
2020/12/09 12:24:19;;;;;;;;;;;25.10;56.20;;;;;;1896580;76;20238;-76
2020/12/09 12:26:56;;;;;;;;;;;25.10;56.10;;;;;;1897001;75;20551;-77
2020/12/09 12:29:23;;;;;;;;;;;25.10;56.20;;;;;;1894203;76;20154;-77
2020/12/09 12:31:53;;;;;;;;;;;25.10;56.80;;;;;;1896902;75;20147;-76
2020/12/09 12:34:23;;;;;;;;;;;25.10;56.60;;;;;;1896585;75;20383;-76
2020/12/09 12:36:54;;;;;;;;;;;25.10;56.80;;;;;;1891013;76;20163;-76
2020/12/09 12:39:32;;;;;;;;;;;25.00;56.90;;;;;;1897186;75;20191;-77
2020/12/09 12:42:10;;;;;;;;;;;25.00;56.50;;;;;;1900338;74;20202;-78
2020/12/09 12:44:42;;;;;;;;;;;25.00;56.60;;;;;;1909131;74;20281;-77
2020/12/09 12:47:13;;;;;;;;;;;25.00;56.40;;;;;;1897052;76;20155;-77
2020/12/09 12:49:47;;;;;;;;;;;25.00;56.60;;;;;;1895687;76;20179;-76
2020/12/09 12:52:17;;;;;;;;;;;25.00;57.00;;;;;;1896962;75;20159;-77
2020/12/09 12:54:47;;;;;;;;;;;25.00;56.80;;;;;;1897638;75;20264;-77
2020/12/09 12:57:19;;;;;;;;;;;25.00;56.90;;;;;;1894965;76;20415;-78
2020/12/09 12:59:49;;;;;;;;;;;24.90;57.00;;;;;;1896822;75;20191;-74
2020/12/09 13:02:19;;;;;;;;;;;24.90;56.90;;;;;;1895000;76;20517;-77
2020/12/09 13:05:04;;;;;;;;;;;24.90;56.90;;;;;;1896190;76;20579;-80
2020/12/09 13:07:44;;;;;;;;;;;24.90;57.00;;;;;;1891165;74;20155;-80
2020/12/09 13:10:18;;;;;;;;;;;24.80;56.90;;;;;;1899712;74;20200;-80
2020/12/09 13:12:51;;;;;;;;;;;24.80;56.80;;;;;;1876617;76;20181;-80
2020/12/09 13:15:22;;;;;;;;;;;24.80;56.80;;;;;;1864369;76;20483;-80
2020/12/09 13:17:52;;;;;;;;;;;24.80;56.80;;;;;;1852306;77;20168;-79
2020/12/09 13:20:23;;;;;;;;;;;24.70;56.70;;;;;;1868504;75;20535;-79
2020/12/09 13:22:52;;;;;;;;;;;24.70;56.80;;;;;;1858136;76;20189;-80
2020/12/09 13:25:25;;;;;;;;;;;24.70;57.00;;;;;;1858992;76;20121;-80
2020/12/09 13:27:55;;;;;;;;;;;24.70;57.10;;;;;;1853829;76;20234;-80
2020/12/09 13:30:29;;;;;;;;;;;24.60;57.10;;;;;;1853984;76;20203;-80
2020/12/09 13:33:09;;;;;;;;;;;24.60;57.10;;;;;;1845617;77;20253;-80
2020/12/09 13:35:41;;;;;;;;;;;24.60;57.20;;;;;;1847987;76;20259;-81
2020/12/09 13:38:18;;;;;;;;;;;24.50;57.30;;;;;;1845947;75;20490;-80
2020/12/09 13:40:52;;;;;;;;;;;24.50;57.50;;;;;;1857281;76;20254;-81
2020/12/09 13:43:23;;;;;;;;;;;24.50;57.50;;;;;;1852016;76;20185;-80
2020/12/09 13:45:53;;;;;;;;;;;24.40;57.50;;;;;;1858088;76;20181;-80
2020/12/09 13:48:23;;;;;;;;;;;24.40;57.70;;;;;;1889287;74;20428;-81
2020/12/09 13:50:53;;;;;;;;;;;24.40;57.80;;;;;;1854618;76;20236;-81
2020/12/09 13:53:23;;;;;;;;;;;24.40;57.90;;;;;;1858574;76;20713;-80
2020/12/09 13:55:55;;;;;;;;;;;24.30;57.90;;;;;;1891126;74;20230;-79
2020/12/09 13:58:31;;;;;;;;;;;24.30;58.00;;;;;;1855299;76;20133;-79
2020/12/09 14:01:05;;;;;;;;;;;24.30;58.20;;;;;;1879856;74;20983;-79
2020/12/09 14:03:37;;;;;;;;;;;24.20;58.10;;;;;;1881941;74;20242;-79
2020/12/09 14:06:07;;;;;;;;;;;24.20;58.10;;;;;;1892654;74;20229;-78
2020/12/09 14:08:37;;;;;;;;;;;24.20;58.20;;;;;;1888533;74;20288;-78
2020/12/09 14:11:11;;;;;;;;;;;24.20;59.20;;;;;;1892084;74;20187;-78
2020/12/09 14:16:45;;;;;;;;;;;24.10;58.80;;;;;;1869159;74;20218;-78
2020/12/09 14:19:20;;;;;;;;;;;24.00;58.80;;;;;;1885618;74;20478;-78
2020/12/09 14:21:53;;;;;;;;;;;24.00;59.10;;;;;;1881092;74;20489;-78
2020/12/09 14:24:23;;;;;;;;;;;23.90;59.10;;;;;;1890612;74;20232;-78
2020/12/09 14:26:52;;;;;;;;;;;23.90;59.50;;;;;;1855419;76;20433;-79
2020/12/09 14:29:22;;;;;;;;;;;23.80;59.50;;;;;;1873044;76;20220;-79
2020/12/09 14:31:52;;;;;;;;;;;23.80;59.60;;;;;;1838426;76;20197;-78
2020/12/09 14:34:25;;;;;;;;;;;23.80;59.70;;;;;;1849262;76;20209;-79
2020/12/09 14:36:55;;;;;;;;;;;23.80;59.70;;;;;;1857473;76;20530;-79
2020/12/09 14:39:27;;;;;;;;;;;23.80;59.70;;;;;;1831721;76;20276;-79
2020/12/09 14:41:57;;;;;;;;;;;23.80;59.70;;;;;;1847203;76;20211;-77
2020/12/09 14:44:27;;;;;;;;;;;23.70;59.80;;;;;;1850050;76;20218;-78
2020/12/09 14:46:56;;;;;;;;;;;23.70;59.80;;;;;;1860276;76;20114;-78
2020/12/09 14:49:26;;;;;;;;;;;23.70;60.00;;;;;;1853550;76;20503;-78
2020/12/09 14:52:00;;;;;;;;;;;23.70;59.90;;;;;;1885534;75;20447;-79